Aérodrome :
LOGIN :

S'inscrire | Disclaimer

   EN    FR    IT 

 










Légende :    VFR   VFR Marginal   IFR   IFR Intensif   IFR Très Intensif
Visi : 
Plafond : 
>= 8 km
>= 3000ft
5 à 8 km
1000 à 3000 ft
1500m à 5 km
500 à 1000 ft
800 à 1500m
200 à 500 ft
< 800m
< 200 ft
Symboles :   Orages  Brouillard  Fortes neiges  Fortes précipitations  Vent > 20 kt
SIGMETs :   Divers  Orages  Givrage  Turbulence  Onde Orograph.  Cendres Volcan.






- Altitude de l'aérodrome : 495 ft
- Code IATA : BUD


LHBP - Budapest Ferihegy

DERNIER METAR :
  • 020700Z 08005KT 6000 -RA SCT024 OVC070 08/07 Q1011 NOSIG

METARs EXPIRÉS :
  • 020630Z 10005KT 4500 -RA BR FEW030 OVC070 08/07 Q1011 TEMPO 5000 -RA
  • 020600Z 09006KT 5000 -RA BR SCT043 BKN070 08/07 Q1010 NOSIG
  • 020530Z 08002KT 5000 -RA BR BKN043 BKN066 08/07 Q1010 NOSIG
  • 020500Z 10005KT 7000 -RA BKN040 BKN065 08/07 Q1010 NOSIG
  • 020430Z 10006KT 7000 -RA SCT044 BKN055 08/07 Q1010 NOSIG
  • 012100Z 09005KT 9999 SCT047 BKN080 11/08 Q1010 NOSIG
  • 020400Z 10007KT 8000 -RA SCT040 BKN065 09/06 Q1010 NOSIG
  • 020330Z 09004KT 9999 -RA SCT040 BKN065 09/05 Q1010 NOSIG
  • 020300Z 09005KT 9999 FEW040 BKN065 09/05 Q1010 NOSIG
  • 020230Z 10006KT CAVOK 09/05 Q1010 NOSIG
  • 020200Z 08004KT CAVOK 09/06 Q1009 NOSIG

TAF COR TAF LHBP
Valide du 02 à 06h jusqu'au 03 à 06h UTC


020527Z 0206/0306 11005KT 7000 -RA BKN040 BKN060
TEMPO 0206/0215 4000 RA SHRA BR BKN008 OVC025
BECMG 0215/0218 08004KT 7000 BKN012
TEMPO 0218/0223 1500 BCFG BR FEW012 SCT080
TEMPO 0223/0306 VRB02KT 2500 -RA BR FEW004 BKN030 OVC050



MET'MAP, la Météo Aéronautique d'un coup d'oeil ! - Copyright ORBIFLY Décembre 2007 - Disclaimer

ORBIFLY MET'MAP TEAM :

Programmation & Développement : Alexandra Zaïnal
Sur une idée originale de : Baudouin d'Aumeries
Soutien technique & logistique : Manuel Goepfert
Assistance : Marc-Olivier Méhu




SOURCES & CREDITS :

   NOAA